createdAt,value
2023-02-26T00:01:26.034Z,3.20
2023-02-26T00:03:55.128Z,3.20
2023-02-26T00:06:26.995Z,3.20
2023-02-26T00:08:54.746Z,3.20
2023-02-26T00:11:22.594Z,3.20
2023-02-26T00:13:49.980Z,3.16
2023-02-26T00:16:28.227Z,3.10
2023-02-26T00:19:01.943Z,3.10
2023-02-26T00:21:30.345Z,3.10
2023-02-26T00:23:58.518Z,3.10
2023-02-26T00:26:27.614Z,3.10
2023-02-26T00:28:56.120Z,3.10
2023-02-26T00:31:26.821Z,3.04
2023-02-26T00:33:56.010Z,3.02
2023-02-26T00:36:50.740Z,3.00
2023-02-26T00:39:18.096Z,3.00
2023-02-26T00:41:45.264Z,3.00
2023-02-26T00:44:12.913Z,3.00
2023-02-26T00:46:54.395Z,3.02
2023-02-26T00:49:59.018Z,3.02
2023-02-26T00:52:53.266Z,3.02
2023-02-26T00:55:20.560Z,3.00
2023-02-26T00:57:47.503Z,3.00
2023-02-26T01:00:15.268Z,3.00
2023-02-26T01:02:42.630Z,3.00
2023-02-26T01:05:11.100Z,3.00
2023-02-26T01:07:47.381Z,3.00
2023-02-26T01:10:14.985Z,3.00
2023-02-26T01:12:43.100Z,2.94
2023-02-26T01:15:11.006Z,2.92
2023-02-26T01:17:45.869Z,2.90
2023-02-26T01:20:26.955Z,2.90
2023-02-26T01:23:19.159Z,2.90
2023-02-26T01:25:58.543Z,2.90
2023-02-26T01:28:26.703Z,2.90
2023-02-26T01:30:58.023Z,2.92
2023-02-26T01:33:41.527Z,2.98
2023-02-26T01:36:15.768Z,2.98
2023-02-26T01:38:53.067Z,3.00
2023-02-26T01:41:31.493Z,3.00
2023-02-26T01:44:35.352Z,3.00
2023-02-26T01:47:23.875Z,3.00
2023-02-26T01:49:51.448Z,2.90
2023-02-26T01:52:49.514Z,2.90
2023-02-26T01:55:22.583Z,2.80
2023-02-26T01:57:54.001Z,2.76
2023-02-26T02:00:21.724Z,2.70
2023-02-26T02:02:50.405Z,2.70
2023-02-26T02:05:43.352Z,2.60
2023-02-26T02:08:11.836Z,2.60
2023-02-26T02:10:43.531Z,2.50
2023-02-26T02:13:31.123Z,2.40
2023-02-26T02:16:18.463Z,2.40
2023-02-26T02:19:03.745Z,2.30
2023-02-26T02:21:39.458Z,2.20
2023-02-26T02:24:12.559Z,2.10
2023-02-26T02:26:59.063Z,2.10
2023-02-26T02:29:51.845Z,2.10
2023-02-26T02:32:34.431Z,2.10
2023-02-26T02:35:12.638Z,2.10
2023-02-26T02:37:48.267Z,2.10
2023-02-26T02:40:23.389Z,2.10
2023-02-26T02:42:58.335Z,2.10
2023-02-26T02:45:50.158Z,2.10
2023-02-26T02:48:34.783Z,2.10
2023-02-26T02:51:09.050Z,2.10
2023-02-26T02:53:45.363Z,2.10
2023-02-26T02:56:28.236Z,2.04
2023-02-26T02:59:11.157Z,2.10
2023-02-26T03:01:40.562Z,2.10
2023-02-26T03:04:11.477Z,2.00
2023-02-26T03:06:39.151Z,2.00
2023-02-26T03:09:08.300Z,1.94
2023-02-26T03:11:36.848Z,1.90
2023-02-26T03:14:06.846Z,1.90
2023-02-26T03:16:56.724Z,1.90
2023-02-26T03:19:48.657Z,1.90
2023-02-26T03:22:21.133Z,1.90
2023-02-26T03:24:57.097Z,1.90
2023-02-26T03:27:34.849Z,1.90
2023-02-26T03:30:08.033Z,1.90
2023-02-26T03:32:45.362Z,1.94
2023-02-26T03:35:26.905Z,2.00
2023-02-26T03:37:59.158Z,2.00
2023-02-26T03:40:32.177Z,2.02
2023-02-26T03:43:06.485Z,2.10
2023-02-26T03:45:36.615Z,2.10
2023-02-26T03:48:08.247Z,2.10
2023-02-26T03:50:46.961Z,2.10
2023-02-26T03:53:30.480Z,2.10
2023-02-26T03:56:13.898Z,2.10
2023-02-26T03:58:46.970Z,2.10
2023-02-26T04:02:01.259Z,2.10
2023-02-26T04:04:32.847Z,2.16
2023-02-26T04:07:04.296Z,2.20
2023-02-26T04:09:31.564Z,2.20
2023-02-26T04:11:59.250Z,2.20
2023-02-26T04:14:26.311Z,2.20
2023-02-26T04:16:54.120Z,2.20
2023-02-26T04:19:21.207Z,2.20
2023-02-26T04:21:48.362Z,2.20
2023-02-26T04:24:16.202Z,2.20
2023-02-26T04:26:44.202Z,2.20
2023-02-26T04:29:14.221Z,2.20
2023-02-26T04:31:42.261Z,2.20
2023-02-26T04:34:09.657Z,2.20
2023-02-26T04:36:36.494Z,2.20
2023-02-26T04:39:04.237Z,2.20
2023-02-26T04:41:31.584Z,2.20
2023-02-26T04:43:58.838Z,2.20
2023-02-26T04:46:29.330Z,2.22
2023-02-26T04:48:57.014Z,2.26
2023-02-26T04:51:26.433Z,2.26
2023-02-26T04:53:53.709Z,2.28
2023-02-26T04:56:24.105Z,2.22
2023-02-26T04:58:51.482Z,2.20
2023-02-26T05:01:23.198Z,2.20
2023-02-26T05:03:50.372Z,2.20
2023-02-26T05:06:17.422Z,2.20
2023-02-26T05:08:44.265Z,2.20
2023-02-26T05:11:11.619Z,2.20
2023-02-26T05:13:39.451Z,2.20
2023-02-26T05:16:07.803Z,2.20
2023-02-26T05:18:35.278Z,2.16
2023-02-26T05:21:02.585Z,2.10
2023-02-26T05:23:29.675Z,2.10
2023-02-26T05:25:57.713Z,2.10
2023-02-26T05:28:26.095Z,2.10
2023-02-26T05:30:53.582Z,2.10
2023-02-26T05:33:20.882Z,2.10
2023-02-26T05:35:48.439Z,2.10
2023-02-26T05:38:15.490Z,2.10
2023-02-26T05:40:42.323Z,2.10
2023-02-26T05:43:09.634Z,2.08
2023-02-26T05:45:36.492Z,2.00
2023-02-26T05:48:03.392Z,2.00
2023-02-26T05:50:31.057Z,2.00
2023-02-26T05:52:58.381Z,2.00
2023-02-26T05:55:25.556Z,1.90
2023-02-26T05:57:52.990Z,1.90
2023-02-26T06:00:20.375Z,1.80
2023-02-26T06:02:47.831Z,1.80
2023-02-26T06:05:15.154Z,1.80
2023-02-26T06:07:42.168Z,1.80
2023-02-26T06:10:19.206Z,1.80
2023-02-26T06:12:46.321Z,1.80
2023-02-26T06:15:13.553Z,1.80
2023-02-26T06:17:41.170Z,1.84
2023-02-26T06:20:09.501Z,1.80
2023-02-26T06:22:36.667Z,1.80
2023-02-26T06:25:04.223Z,1.90
2023-02-26T06:27:31.886Z,1.90
2023-02-26T06:29:58.978Z,1.90
2023-02-26T06:32:28.937Z,1.92
2023-02-26T06:34:57.495Z,2.00
2023-02-26T06:37:24.685Z,2.02
2023-02-26T06:39:51.943Z,2.10
2023-02-26T06:42:21.442Z,2.10
2023-02-26T06:44:51.670Z,2.16
2023-02-26T06:47:19.107Z,2.20
2023-02-26T06:49:46.600Z,2.20
2023-02-26T06:52:13.683Z,2.30
2023-02-26T06:54:44.053Z,2.30
2023-02-26T06:57:11.099Z,2.38
2023-02-26T06:59:38.147Z,2.40
2023-02-26T07:02:05.299Z,2.40
2023-02-26T07:04:32.549Z,2.40
2023-02-26T07:07:02.677Z,2.40
2023-02-26T07:09:32.081Z,2.46
2023-02-26T07:12:07.347Z,2.58
2023-02-26T07:14:37.732Z,2.74
2023-02-26T07:17:09.822Z,2.90
2023-02-26T07:19:40.131Z,3.10
2023-02-26T07:22:12.825Z,3.16
2023-02-26T07:24:46.095Z,3.20
2023-02-26T07:27:13.731Z,3.30
2023-02-26T07:29:41.057Z,3.30
2023-02-26T07:32:08.143Z,3.38
2023-02-26T07:34:35.304Z,3.40
2023-02-26T07:37:02.353Z,3.50
2023-02-26T07:39:29.704Z,3.60
2023-02-26T07:41:57.057Z,3.70
2023-02-26T07:44:24.413Z,3.76
2023-02-26T07:46:51.507Z,3.82
2023-02-26T07:49:19.132Z,3.90
2023-02-26T07:51:46.472Z,4.00
2023-02-26T07:54:14.396Z,4.00
2023-02-26T07:56:42.949Z,4.10
2023-02-26T07:59:10.945Z,4.16
2023-02-26T08:01:38.215Z,4.20
2023-02-26T08:04:05.761Z,4.20
2023-02-26T08:06:32.994Z,4.16
2023-02-26T08:08:59.945Z,4.20
2023-02-26T08:11:26.990Z,4.20
2023-02-26T08:13:54.166Z,4.28
2023-02-26T08:16:24.570Z,4.30
2023-02-26T08:18:51.649Z,4.50
2023-02-26T08:21:18.718Z,4.60
2023-02-26T08:23:45.764Z,4.60
2023-02-26T08:26:14.197Z,4.60
2023-02-26T08:28:42.060Z,4.70
2023-02-26T08:31:09.408Z,4.70
2023-02-26T08:33:36.618Z,4.70
2023-02-26T08:36:03.721Z,4.70
2023-02-26T08:38:31.420Z,4.80
2023-02-26T08:40:58.766Z,4.80
2023-02-26T08:43:26.690Z,4.88
2023-02-26T08:45:54.981Z,4.90
2023-02-26T08:48:22.404Z,5.00
2023-02-26T08:50:49.813Z,5.18
2023-02-26T08:53:17.395Z,5.28
2023-02-26T08:55:48.542Z,5.32
2023-02-26T08:58:15.957Z,5.30
2023-02-26T09:00:43.036Z,5.30
2023-02-26T09:03:09.991Z,5.20
2023-02-26T09:05:37.550Z,5.10
2023-02-26T09:08:05.105Z,5.04
2023-02-26T09:10:32.462Z,4.90
2023-02-26T09:12:59.716Z,4.88
2023-02-26T09:15:27.114Z,4.80
2023-02-26T09:17:55.142Z,4.60
2023-02-26T09:20:22.570Z,4.46
2023-02-26T09:22:49.834Z,4.30
2023-02-26T09:25:17.306Z,4.22
2023-02-26T09:27:44.555Z,4.20
2023-02-26T09:30:12.574Z,4.20
2023-02-26T09:32:39.821Z,4.20
2023-02-26T09:35:07.508Z,4.20
2023-02-26T09:37:34.690Z,4.20
2023-02-26T09:40:03.425Z,4.10
2023-02-26T09:42:53.405Z,4.10
2023-02-26T09:45:32.054Z,4.10
2023-02-26T09:48:22.474Z,4.10
2023-02-26T09:50:59.598Z,4.10
2023-02-26T09:53:35.105Z,4.10
2023-02-26T09:56:08.799Z,4.18
2023-02-26T09:58:40.290Z,4.30
2023-02-26T10:01:23.796Z,4.50
2023-02-26T10:04:20.762Z,4.60
2023-02-26T10:07:33.357Z,4.80
2023-02-26T10:10:12.343Z,5.04
2023-02-26T10:12:42.130Z,5.20
2023-02-26T10:15:17.441Z,5.24
2023-02-26T10:18:06.397Z,5.20
2023-02-26T10:20:48.530Z,5.18
2023-02-26T10:23:15.808Z,5.10
2023-02-26T10:25:49.581Z,5.00
2023-02-26T10:28:44.145Z,4.84
2023-02-26T10:31:25.866Z,4.70
2023-02-26T10:34:21.767Z,4.66
2023-02-26T10:37:19.937Z,4.60
2023-02-26T10:40:00.987Z,4.56
2023-02-26T10:42:38.909Z,4.50
2023-02-26T10:45:12.130Z,4.48
2023-02-26T10:47:49.839Z,4.38
2023-02-26T10:50:20.659Z,4.30
2023-02-26T10:52:51.212Z,4.20
2023-02-26T10:55:44.120Z,4.20
2023-02-26T10:58:16.788Z,4.20
2023-02-26T11:00:46.546Z,4.20
2023-02-26T11:03:34.640Z,4.10
2023-02-26T11:06:03.922Z,4.10
2023-02-26T11:08:41.070Z,4.20
2023-02-26T11:11:08.526Z,4.20
2023-02-26T11:13:38.712Z,4.30
2023-02-26T11:16:14.275Z,4.42
2023-02-26T11:18:54.681Z,4.60
2023-02-26T11:21:38.631Z,4.70
2023-02-26T11:24:11.742Z,4.88
2023-02-26T11:26:39.841Z,5.04
2023-02-26T11:29:07.078Z,5.14
2023-02-26T11:31:41.687Z,5.46
2023-02-26T11:34:14.982Z,5.92
2023-02-26T11:36:44.785Z,6.50
2023-02-26T11:39:18.881Z,6.70
2023-02-26T11:41:49.171Z,6.70
2023-02-26T11:44:38.453Z,6.60
2023-02-26T11:47:11.600Z,6.60
2023-02-26T11:49:45.961Z,6.50
2023-02-26T11:52:27.867Z,6.30
2023-02-26T11:55:02.481Z,6.20
2023-02-26T11:57:32.448Z,6.12
2023-02-26T12:00:01.531Z,6.12
2023-02-26T12:02:38.089Z,6.00
2023-02-26T12:05:07.394Z,5.72
2023-02-26T12:07:34.827Z,5.60
2023-02-26T12:10:02.122Z,5.34
2023-02-26T12:12:53.036Z,5.00
2023-02-26T12:15:28.851Z,4.90
2023-02-26T12:18:15.727Z,4.90
2023-02-26T12:20:59.052Z,4.90
2023-02-26T12:23:40.942Z,5.00
2023-02-26T12:26:07.754Z,5.06
2023-02-26T12:28:42.690Z,5.08
2023-02-26T12:31:47.539Z,5.14
2023-02-26T12:34:49.606Z,5.22
2023-02-26T12:37:29.644Z,5.44
2023-02-26T12:40:24.169Z,5.70
2023-02-26T12:43:24.899Z,6.08
2023-02-26T12:46:02.088Z,6.58
2023-02-26T12:48:28.900Z,6.88
2023-02-26T12:51:33.550Z,7.00
2023-02-26T12:54:15.833Z,7.10
2023-02-26T12:56:57.963Z,7.00
2023-02-26T12:59:53.135Z,6.90
2023-02-26T13:02:38.078Z,6.72
2023-02-26T13:05:53.386Z,6.52
2023-02-26T13:08:51.286Z,6.44
2023-02-26T13:11:59.330Z,6.40
2023-02-26T13:14:37.788Z,6.42
2023-02-26T13:17:55.213Z,6.40
2023-02-26T13:20:27.909Z,6.40
2023-02-26T13:23:11.934Z,6.30
2023-02-26T13:25:48.952Z,6.20
2023-02-26T13:28:39.338Z,6.16
2023-02-26T13:31:14.006Z,6.16
2023-02-26T13:33:42.404Z,6.20
2023-02-26T13:36:10.594Z,6.16
2023-02-26T13:39:08.584Z,6.00
2023-02-26T13:41:40.903Z,5.94
2023-02-26T13:44:28.461Z,5.90
2023-02-26T13:47:07.682Z,5.86
2023-02-26T13:49:37.090Z,5.80
2023-02-26T13:52:04.447Z,5.70
2023-02-26T13:54:45.801Z,5.60
2023-02-26T13:57:34.496Z,5.60
2023-02-26T14:00:23.491Z,5.60
2023-02-26T14:02:59.290Z,5.70
2023-02-26T14:05:34.638Z,5.74
2023-02-26T14:08:01.477Z,5.80
2023-02-26T14:11:25.089Z,5.70
2023-02-26T14:14:13.506Z,5.60
2023-02-26T14:16:44.681Z,5.56
2023-02-26T14:19:50.063Z,5.46
2023-02-26T14:22:26.081Z,5.50
2023-02-26T14:25:28.336Z,5.48
2023-02-26T14:28:25.127Z,5.58
2023-02-26T14:31:14.431Z,5.60
2023-02-26T14:33:58.337Z,5.62
2023-02-26T14:36:45.619Z,5.60
2023-02-26T14:39:37.286Z,5.60
2023-02-26T14:42:38.118Z,5.68
2023-02-26T14:45:17.402Z,5.80
2023-02-26T14:47:49.755Z,5.70
2023-02-26T14:50:23.030Z,5.60
2023-02-26T14:53:04.213Z,5.60
2023-02-26T14:55:49.913Z,5.60
2023-02-26T14:58:33.980Z,5.60
2023-02-26T15:01:42.628Z,5.46
2023-02-26T15:04:22.748Z,5.20
2023-02-26T15:06:58.915Z,4.94
2023-02-26T15:09:50.760Z,4.80
2023-02-26T15:12:29.660Z,4.70
2023-02-26T15:15:18.821Z,4.52
2023-02-26T15:18:01.021Z,4.40
2023-02-26T15:20:43.708Z,4.40
2023-02-26T15:23:19.674Z,4.38
2023-02-26T15:25:51.042Z,4.30
2023-02-26T15:28:33.020Z,4.30
2023-02-26T15:31:01.675Z,4.30
2023-02-26T15:33:29.459Z,4.30
2023-02-26T15:35:58.909Z,4.30
2023-02-26T15:38:26.795Z,4.26
2023-02-26T15:41:01.716Z,4.20
2023-02-26T15:43:31.717Z,4.20
2023-02-26T15:46:02.427Z,4.10
2023-02-26T15:48:35.629Z,4.10
2023-02-26T15:51:17.170Z,4.00
2023-02-26T15:53:54.775Z,4.00
2023-02-26T15:56:31.345Z,3.90
2023-02-26T15:59:04.776Z,3.80
2023-02-26T16:01:36.922Z,3.70
2023-02-26T16:04:08.632Z,3.60
2023-02-26T16:06:47.814Z,3.50
2023-02-26T16:09:25.963Z,3.40
2023-02-26T16:11:58.550Z,3.30
2023-02-26T16:14:37.133Z,3.20
2023-02-26T16:17:07.118Z,3.20
2023-02-26T16:19:43.628Z,3.10
2023-02-26T16:22:36.245Z,3.10
2023-02-26T16:25:09.570Z,3.10
2023-02-26T16:27:43.103Z,3.10
2023-02-26T16:30:24.409Z,3.04
2023-02-26T16:32:54.681Z,3.00
2023-02-26T16:35:24.552Z,2.80
2023-02-26T16:37:55.276Z,2.80
2023-02-26T16:40:35.229Z,2.80
2023-02-26T16:43:24.525Z,2.64
2023-02-26T16:45:59.985Z,2.60
2023-02-26T16:48:35.719Z,2.60
2023-02-26T16:51:07.602Z,2.50
2023-02-26T16:53:38.157Z,2.50
2023-02-26T16:56:05.982Z,2.50
2023-02-26T16:58:36.195Z,2.48
2023-02-26T17:01:12.580Z,2.40
2023-02-26T17:03:40.999Z,2.40
2023-02-26T17:06:11.755Z,2.40
2023-02-26T17:09:13.244Z,2.40
2023-02-26T17:11:46.073Z,2.46
2023-02-26T17:14:19.504Z,2.50
2023-02-26T17:16:50.948Z,2.52
2023-02-26T17:19:19.651Z,2.50
2023-02-26T17:21:54.919Z,2.40
2023-02-26T17:24:36.016Z,2.40
2023-02-26T17:27:08.050Z,2.34
2023-02-26T17:29:42.224Z,2.30
2023-02-26T17:32:27.347Z,2.22
2023-02-26T17:34:58.848Z,2.20
2023-02-26T17:37:31.595Z,2.20
2023-02-26T17:40:03.193Z,2.10
2023-02-26T17:42:35.837Z,2.10
2023-02-26T17:45:03.741Z,2.10
2023-02-26T17:47:34.567Z,2.00
2023-02-26T17:50:02.153Z,2.00
2023-02-26T17:52:31.557Z,2.02
2023-02-26T17:55:02.368Z,2.00
2023-02-26T17:57:29.842Z,2.00
2023-02-26T17:59:56.917Z,2.10
2023-02-26T18:02:27.322Z,2.10
2023-02-26T18:04:55.207Z,2.10
2023-02-26T18:07:24.274Z,2.10
2023-02-26T18:09:51.522Z,2.16
2023-02-26T18:12:21.806Z,2.20
2023-02-26T18:14:50.037Z,2.20
2023-02-26T18:17:26.597Z,2.30
2023-02-26T18:19:54.609Z,2.30
2023-02-26T18:22:25.568Z,2.40
2023-02-26T18:24:53.845Z,2.40
2023-02-26T18:27:24.370Z,2.40
2023-02-26T18:29:52.060Z,2.50
2023-02-26T18:32:22.037Z,2.50
2023-02-26T18:34:51.015Z,2.50
2023-02-26T18:37:22.478Z,2.50
2023-02-26T18:39:50.428Z,2.50
2023-02-26T18:42:25.443Z,2.60
2023-02-26T18:44:53.287Z,2.60
2023-02-26T18:47:22.296Z,2.60
2023-02-26T18:49:50.585Z,2.60
2023-02-26T18:52:18.630Z,2.60
2023-02-26T18:54:45.777Z,2.50
2023-02-26T18:57:13.150Z,2.50
2023-02-26T18:59:40.600Z,2.50
2023-02-26T19:02:11.104Z,2.50
2023-02-26T19:04:38.297Z,2.50
2023-02-26T19:07:05.834Z,2.50
2023-02-26T19:09:32.891Z,2.50
2023-02-26T19:12:00.185Z,2.50
2023-02-26T19:14:27.933Z,2.50
2023-02-26T19:16:58.010Z,2.50
2023-02-26T19:19:25.367Z,2.50
2023-02-26T19:21:53.977Z,2.50
2023-02-26T19:24:21.128Z,2.50
2023-02-26T19:26:49.163Z,2.50
2023-02-26T19:29:18.365Z,2.54
2023-02-26T19:31:46.774Z,2.54
2023-02-26T19:34:14.493Z,2.58
2023-02-26T19:36:48.315Z,2.50
2023-02-26T19:39:17.209Z,2.50
2023-02-26T19:41:45.956Z,2.50
2023-02-26T19:44:13.044Z,2.50
2023-02-26T19:46:42.051Z,2.40
2023-02-26T19:49:12.661Z,2.36
2023-02-26T19:51:40.118Z,2.30
2023-02-26T19:54:07.494Z,2.30
2023-02-26T19:56:37.594Z,2.26
2023-02-26T19:59:04.912Z,2.20
2023-02-26T20:01:32.153Z,2.20
2023-02-26T20:03:59.255Z,2.20
2023-02-26T20:06:26.730Z,2.20
2023-02-26T20:08:54.020Z,2.20
2023-02-26T20:11:21.111Z,2.10
2023-02-26T20:13:48.068Z,2.10
2023-02-26T20:16:15.844Z,2.00
2023-02-26T20:18:44.330Z,2.00
2023-02-26T20:21:12.165Z,1.90
2023-02-26T20:23:40.140Z,1.90
2023-02-26T20:26:11.611Z,1.90
2023-02-26T20:28:39.641Z,1.82
2023-02-26T20:31:07.694Z,1.80
2023-02-26T20:33:36.343Z,1.80
2023-02-26T20:36:03.659Z,1.80
2023-02-26T20:38:30.524Z,1.80
2023-02-26T20:40:57.514Z,1.80
2023-02-26T20:43:25.154Z,1.84
2023-02-26T20:45:54.038Z,1.86
2023-02-26T20:48:21.357Z,1.90
2023-02-26T20:50:48.812Z,1.90
2023-02-26T20:53:15.750Z,1.90
2023-02-26T20:55:42.785Z,1.90
2023-02-26T20:58:09.946Z,1.90
2023-02-26T21:00:37.171Z,1.90
2023-02-26T21:03:05.093Z,1.84
2023-02-26T21:05:32.218Z,1.82
2023-02-26T21:07:59.160Z,1.86
2023-02-26T21:10:26.103Z,1.90
2023-02-26T21:12:53.052Z,1.90
2023-02-26T21:15:20.262Z,1.92
2023-02-26T21:17:47.451Z,2.00
2023-02-26T21:20:18.113Z,2.00
2023-02-26T21:22:46.362Z,2.10
2023-02-26T21:25:13.812Z,2.18
2023-02-26T21:27:40.746Z,2.20
2023-02-26T21:30:09.624Z,2.22
2023-02-26T21:32:36.618Z,2.26
2023-02-26T21:35:03.748Z,2.22
2023-02-26T21:37:30.643Z,2.20
2023-02-26T21:39:57.546Z,2.20
2023-02-26T21:42:25.544Z,2.22
2023-02-26T21:44:52.441Z,2.24
2023-02-26T21:47:19.365Z,2.20
2023-02-26T21:49:46.430Z,2.20
2023-02-26T21:52:13.492Z,2.20
2023-02-26T21:54:40.993Z,2.20
2023-02-26T21:57:07.902Z,2.18
2023-02-26T21:59:35.245Z,2.20
2023-02-26T22:02:02.539Z,2.10
2023-02-26T22:04:30.116Z,2.10
2023-02-26T22:06:57.162Z,2.10
2023-02-26T22:09:24.138Z,2.10
2023-02-26T22:11:51.035Z,2.04
2023-02-26T22:14:18.509Z,2.02
2023-02-26T22:16:45.438Z,2.00
2023-02-26T22:19:12.325Z,2.02
2023-02-26T22:21:39.337Z,2.08
2023-02-26T22:24:10.827Z,2.10
2023-02-26T22:26:37.897Z,2.10
2023-02-26T22:29:04.889Z,2.10
2023-02-26T22:31:32.950Z,2.10
2023-02-26T22:34:00.653Z,2.10
2023-02-26T22:36:29.560Z,2.10
2023-02-26T22:38:57.219Z,2.10
2023-02-26T22:41:24.313Z,2.10
2023-02-26T22:43:55.193Z,2.10
2023-02-26T22:46:24.506Z,2.10
2023-02-26T22:48:52.046Z,2.10
2023-02-26T22:51:18.812Z,2.10
2023-02-26T22:53:46.176Z,2.10
2023-02-26T22:56:13.161Z,2.10
2023-02-26T22:58:40.158Z,2.08
2023-02-26T23:01:08.124Z,2.10
2023-02-26T23:03:35.163Z,2.10
2023-02-26T23:06:02.207Z,2.10
2023-02-26T23:08:29.080Z,2.08
2023-02-26T23:11:01.126Z,2.02
2023-02-26T23:13:34.297Z,2.04
2023-02-26T23:16:06.768Z,2.04
2023-02-26T23:18:36.465Z,2.06
2023-02-26T23:21:05.871Z,2.08
2023-02-26T23:23:32.935Z,2.02
2023-02-26T23:26:00.073Z,2.00
2023-02-26T23:28:27.024Z,2.00
2023-02-26T23:30:54.234Z,2.00
2023-02-26T23:33:21.247Z,2.00
2023-02-26T23:35:48.887Z,2.00
2023-02-26T23:38:16.041Z,2.00
2023-02-26T23:40:43.022Z,2.00
2023-02-26T23:43:10.232Z,2.00
2023-02-26T23:45:37.381Z,2.04
2023-02-26T23:48:04.629Z,2.08
2023-02-26T23:50:31.762Z,2.10
2023-02-26T23:52:58.829Z,2.10
2023-02-26T23:55:26.437Z,2.10
2023-02-26T23:57:53.549Z,2.10
